Flight Track Log - Related Links

Times and Time Zones

All times are in EDT time to prevent confusion due to time zone crossing. See the ASH3759 flight status page for this flight to view local times or setup timezone preferences in your user account.

Time Position Orientation Groundspeed Altitude Reporting Facility
EDT Latitude Longitude Course Direction KTS MPH feet Rate Location/Type
Mon 02:39:12 PM 42.3500 -71.0167 228° Southwest 141 162 600  Level KA90
Mon 02:40:12 PM 42.3167 -71.0667 228° Southwest 228 262 2,400 2,000 Climbing KA90
Mon 02:41:12 PM 42.2833 -71.1500 242° Southwest 263 303 4,600 2,371 Climbing KA90
Mon 02:42:16 PM 42.3139 -71.2267 298° West 266 306 7,300 2,736 Climbing Boston Center
Mon 02:43:17 PM 42.3847 -71.2564 343° North 263 303 10,300 2,244 Climbing Boston Center
Mon 02:44:19 PM 42.4700 -71.2614 358° North 288 331 11,900 1,548 Climbing Boston Center
Mon 02:45:21 PM 42.5564 -71.2661 358° North 311 358 13,500 1,707 Climbing Boston Center
Mon 02:46:22 PM 42.6553 -71.2697 358° North 326 375 15,400 1,756 Climbing Boston Center
Mon 02:47:24 PM 42.7486 -71.2767 357° North 331 381 17,100 1,548 Climbing Boston Center
Mon 02:48:26 PM 42.7919 -71.3811 300° West 342 394 18,600 1,415 Climbing Boston Center
Mon 02:49:27 PM 42.8033 -71.5039 277° West 352 405 20,000 1,415 Climbing Boston Center
Mon 02:50:29 PM 42.8167 -71.6303 278° West 352 405 21,500 1,597 Climbing Boston Center
Mon 02:51:31 PM 42.8311 -71.7925 277° West 354 407 23,300 1,463 Climbing Boston Center
Mon 02:52:32 PM 42.8447 -71.9272 278° West 355 409 24,500 1,073 Climbing Boston Center
Mon 02:53:34 PM 42.8558 -72.0658 276° West 364 419 25,500 871 Climbing Boston Center
Mon 02:54:36 PM 42.8692 -72.2075 277° West 370 426 26,300 823 Climbing Boston Center
Mon 02:55:38 PM 42.8833 -72.3569 277° West 386 444 27,200 1,016 Climbing Boston Center
Mon 02:56:40 PM 42.8961 -72.5025 277° West 390 449 28,400 1,220 Climbing Boston Center
Mon 02:57:41 PM 42.9103 -72.6614 277° West 389 448 29,700 1,024 Climbing Boston Center
Mon 02:58:43 PM 42.9228 -72.8056 277° West 388 447 30,500 912 Climbing Boston Center
Mon 02:59:46 PM 42.9350 -72.9506 277° West 387 445 31,600 1,065 Climbing Boston Center
Mon 03:00:47 PM 42.9486 -73.1086 277° West 386 444 32,700 1,024 Climbing Boston Center
Mon 03:01:49 PM 42.9603 -73.2517 276° West 383 441 33,700 629 Climbing Boston Center
Mon 03:02:51 PM 42.9714 -73.3939 276° West 380 437 34,000 145 Climbing Boston Center
Mon 03:03:53 PM 42.9833 -73.5414 276° West 387 445 34,000  Level Boston Center
Mon 03:04:54 PM 42.9947 -73.6958 276° West 401 461 34,000  Level Boston Center
Mon 03:05:56 PM 43.0064 -73.8506 276° West 404 465 34,000  Level Boston Center
Mon 03:06:58 PM 43.0211 -74.0372 276° West 408 470 34,000  Level Boston Center
Mon 03:08:00 PM 43.0331 -74.1928 276° West 409 471 34,000 390 Level Boston Center
Mon 03:09:01 PM 43.0436 -74.3456 275° West 407 468 34,800 780 Climbing Boston Center
Mon 03:10:03 PM 43.0536 -74.4964 275° West 400 460 35,600 581 Climbing Boston Center
Mon 03:11:05 PM 43.0650 -74.6461 276° West 395 455 36,000 194 Climbing Boston Center
Mon 03:12:07 PM 43.0750 -74.7989 275° West 399 459 36,000  Level Boston Center
Mon 03:13:08 PM 43.0869 -74.9747 275° West 405 466 36,000  Level Boston Center
Mon 03:14:10 PM 43.0967 -75.1292 275° West 407 468 36,000  Level Boston Center
Mon 03:15:12 PM 43.1075 -75.2864 275° West 407 468 36,000  Level Boston Center
Mon 03:16:13 PM 43.1172 -75.4403 275° West 407 468 36,000  Level Boston Center
Mon 03:17:15 PM 43.1258 -75.5928 274° West 407 468 36,000  Level Boston Center
Mon 03:18:17 PM 43.1344 -75.7461 274° West 406 467 36,000  Level Boston Center
Mon 03:19:18 PM 43.1444 -75.8994 275° West 406 467 36,000  Level Boston Center
Mon 03:20:20 PM 43.1528 -76.0522 274° West 406 467 36,000  Level Boston Center
Mon 03:21:22 PM 43.1619 -76.2367 274° West 406 467 36,000  Level Boston Center
Mon 03:22:23 PM 43.1606 -76.3919 269° West 406 467 36,000  Level Boston Center
Mon 03:23:25 PM 43.1606 -76.5481 270° West 409 471 36,000  Level Boston Center
Mon 03:24:27 PM 43.1597 -76.7039 270° West 410 472 36,000  Level Boston Center
Mon 03:25:28 PM 43.1597 -76.8611 270° West 413 475 36,000  Level Boston Center
Mon 03:26:01 PM 43.1583 -76.9558 269° West 413 475 36,000  Level Cleveland Center
Mon 03:27:03 PM 43.1581 -77.1133 270° West 413 475 36,000  Level Cleveland Center
Mon 03:28:05 PM 43.1564 -77.2708 269° West 414 476 36,000  Level Cleveland Center
Mon 03:29:08 PM 43.1553 -77.4592 270° West 414 476 36,000  Level Cleveland Center
Mon 03:30:10 PM 43.1525 -77.6167 269° West 415 478 36,000  Level Cleveland Center
Mon 03:31:12 PM 43.1517 -77.7756 270° West 420 483 36,000  Level Cleveland Center
Mon 03:32:14 PM 43.1492 -77.9350 269° West 420 483 36,000  Level Cleveland Center
Mon 03:33:16 PM 43.1472 -78.0953 269° West 422 486 36,000  Level Cleveland Center
Mon 03:34:18 PM 43.1436 -78.2872 269° West 423 487 36,000  Level Cleveland Center
Mon 03:35:21 PM 43.1397 -78.4483 268° West 423 487 36,000  Level Cleveland Center
Mon 03:36:23 PM 43.1350 -78.6119 268° West 429 494 36,000  Level Cleveland Center
Mon 03:37:25 PM 43.1297 -78.7739 267° West 429 494 36,000  Level Cleveland Center
Mon 03:38:27 PM 43.1256 -78.9361 268° West 428 493 36,000  Level Cleveland Center
Mon 03:39:05 PM 43.1222 -79.0333 267° West 428 493 36,000  Level Cleveland Center
Mon 03:39:55 PM 43.1167 -79.1833 267° West 430 495 36,000  Level Toronto Center
Mon 03:40:55 PM 43.1000 -79.3333 261° West 430 495 36,000  Level Toronto Center
Mon 03:43:13 PM 43.0986 -79.7183 270° West 432 497 36,000  Level Cleveland Center
Mon 03:44:15 PM 43.0906 -79.8839 266° West 434 499 36,000  Level Cleveland Center
Mon 03:44:55 PM 43.0833 -80.0000 265° West 430 495 36,000  Level Toronto Center
Mon 03:45:55 PM 43.0667 -80.1833 263° West 440 506 36,000  Level Toronto Center
Mon 03:46:55 PM 43.0667 -80.3333 270° West 440 506 36,000  Level Toronto Center
Mon 03:47:55 PM 43.0667 -80.5000 270° West 440 506 36,000  Level Toronto Center
Mon 03:48:55 PM 43.0500 -80.6667 262° West 440 506 36,000  Level Toronto Center
Mon 03:49:55 PM 43.0333 -80.8167 261° West 440 506 36,000  Level Toronto Center
Mon 03:50:55 PM 43.0333 -81.0000 270° West 440 506 36,000  Level Toronto Center
Mon 03:51:55 PM 43.0167 -81.1667 262° West 440 506 36,000  Level Toronto Center
Mon 03:52:55 PM 43.0167 -81.3500 270° West 440 506 36,000  Level Toronto Center
Mon 03:53:55 PM 43.0167 -81.5000 270° West 440 506 36,000  Level Toronto Center
Mon 03:54:55 PM 43.0167 -81.6667 270° West 440 506 36,000  Level Toronto Center
Mon 03:55:55 PM 43.0167 -81.8500 270° West 440 506 36,000  Level Toronto Center
Mon 03:56:55 PM 43.0000 -82.0000 261° West 440 506 36,000  Level Toronto Center
Mon 03:57:55 PM 43.0000 -82.1833 270° West 440 506 36,000  Level Toronto Center
Mon 03:58:55 PM 43.0000 -82.3500 270° West 440 506 36,000  Level Toronto Center
Mon 03:59:55 PM 43.0000 -82.5000 270° West 440 506 36,000  Level Toronto Center
Mon 04:00:51 PM 43.0053 -82.6378 273° West 440 506 36,000 -661 Level Cleveland Center
Mon 04:01:53 PM 42.9983 -82.8369 267° West 439 505 34,700 -968 Descending Cleveland Center
Mon 04:02:55 PM 42.9933 -83.0047 268° West 441 507 34,000 -387 Descending Cleveland Center
Mon 04:03:57 PM 42.9878 -83.1742 267° West 446 513 33,900 -532 Descending Cleveland Center
Mon 04:04:59 PM 42.9828 -83.3419 268° West 447 514 32,900 -919 Descending Cleveland Center
Mon 04:06:01 PM 42.9767 -83.5122 267° West 448 516 32,000 -435 Descending Cleveland Center
Mon 04:07:03 PM 42.9692 -83.7161 267° West 450 518 32,000  Level Cleveland Center
Mon 04:08:06 PM 42.9544 -83.8875 263° West 457 526 32,000  Level Cleveland Center
Mon 04:09:08 PM 42.9369 -84.0589 262° West 457 526 32,000  Level Cleveland Center
Mon 04:10:10 PM 42.9200 -84.2300 262° West 458 527 32,000  Level Cleveland Center
Mon 04:11:12 PM 42.9008 -84.4272 263° West 458 527 32,000  Level Cleveland Center
Mon 04:12:14 PM 42.8836 -84.5989 262° West 458 527 32,000  Level Cleveland Center
Mon 04:13:16 PM 42.8658 -84.7694 262° West 457 526 32,000  Level Cleveland Center
Mon 04:14:19 PM 42.8483 -84.9353 262° West 444 511 32,000 -48 Level Cleveland Center
Mon 04:15:21 PM 42.8322 -85.0822 262° West 401 461 31,900 -871 Descending Cleveland Center
Mon 04:16:23 PM 42.8133 -85.2594 262° West 395 455 30,200 -1,500 Descending Cleveland Center
Mon 04:17:25 PM 42.7969 -85.4028 261° West 385 443 28,800 -1,355 Descending Cleveland Center
Mon 04:18:27 PM 42.7797 -85.5394 260° West 369 425 27,400 -871 Descending Cleveland Center
Mon 04:19:29 PM 42.7544 -85.6756 256° West 366 421 27,000 -194 Descending Cleveland Center
Mon 04:20:31 PM 42.7269 -85.8264 256° West 398 458 27,000 -624 Level Cleveland Center
Mon 04:21:34 PM 42.6994 -85.9803 256° West 411 473 25,700 -1,344 Descending Cleveland Center
Mon 04:22:36 PM 42.6728 -86.1256 256° West 396 456 24,200 -1,113 Descending Cleveland Center
Mon 04:23:38 PM 42.6417 -86.2933 256° West 382 440 23,400 -1,233 Descending Cleveland Center
Mon 04:25:02 PM 42.6022 -86.4986 255° West 396 456 21,200 -1,932 Descending Chicago Center
Mon 04:26:04 PM 42.5775 -86.6322 256° West 367 422 18,700 -2,516 Descending Chicago Center
Mon 04:27:06 PM 42.5519 -86.7625 255° West 360 414 16,000 -2,448 Descending Chicago Center
Mon 04:28:09 PM 42.5175 -86.8856 249° West 353 406 13,600 -2,016 Descending Chicago Center
Mon 04:29:11 PM 42.4881 -86.9969 250° West 321 369 11,800 -1,742 Descending Chicago Center
Mon 04:30:13 PM 42.4450 -87.0842 236° Southwest 276 318 10,000 -1,839 Descending Chicago Center
Mon 04:31:15 PM 42.3722 -87.1619 218° Southwest 279 321 8,000 -1,790 Descending Chicago Center
Mon 04:32:17 PM 42.2992 -87.1981 200° South 277 319 6,300 -968 Descending Chicago Center
Mon 04:33:19 PM 42.2217 -87.2331 198° South 275 316 6,000 -144 Descending Chicago Center
Mon 04:34:22 PM 42.1481 -87.2644 198° South 275 316 6,000  Level Chicago Center
Mon 04:35:24 PM 42.0692 -87.2986 198° South 276 318 6,000 -484 Level Chicago Center
Mon 04:36:26 PM 41.9950 -87.3308 198° South 278 320 5,000 -484 Descending Chicago Center
Mon 04:37:28 PM 41.9647 -87.4058 242° Southwest 229 264 5,000  Level Chicago Center
Mon 04:38:30 PM 41.9658 -87.4953 271° West 223 257 5,000  Level Chicago Center
Mon 04:39:32 PM 41.9650 -87.5661 269° West 197 227 5,000 -384 Level Chicago Center
Mon 04:40:35 PM 41.9653 -87.6450 270° West 197 227 4,200 -912 Descending Chicago Center
Mon 04:41:37 PM 41.9656 -87.7136 270° West 187 215 3,100 -1,016 Descending Chicago Center
Mon 04:42:39 PM 41.9658 -87.7886 270° West 185 213 2,100 -871 Descending Chicago Center
Mon 04:43:41 PM 41.9653 -87.8475 269° West 163 188 1,300 -629 Descending Chicago Center
Mon 04:44:43 PM 41.9650 -87.8986 270° West 148 170 800 -484 Descending Chicago Center
Mon 04:46:00 PM 41.9667 -87.9000 217° Southwest  Level FlightAware Approximate

Login

Don't have an account? Register now (free) for customized features, flight alerts, and more!